createdAt,value
2022-08-17T00:01:27.219Z,11.15
2022-08-17T00:03:54.671Z,11.48
2022-08-17T00:06:29.093Z,13.38
2022-08-17T00:08:57.884Z,12.05
2022-08-17T00:11:36.493Z,11.23
2022-08-17T00:14:07.539Z,15.30
2022-08-17T00:16:57.030Z,15.80
2022-08-17T00:19:24.959Z,12.75
2022-08-17T00:22:00.015Z,12.65
2022-08-17T00:24:39.917Z,10.20
2022-08-17T00:27:06.846Z,14.80
2022-08-17T00:29:33.741Z,12.80
2022-08-17T00:33:14.905Z,12.52
2022-08-17T00:34:49.053Z,14.05
2022-08-17T00:37:15.984Z,12.07
2022-08-17T00:39:42.958Z,11.88
2022-08-17T00:42:14.496Z,12.55
2022-08-17T00:44:41.368Z,12.82
2022-08-17T00:47:08.352Z,12.82
2022-08-17T00:49:35.295Z,12.30
2022-08-17T00:52:11.886Z,15.80
2022-08-17T00:54:41.876Z,14.32
2022-08-17T00:57:20.334Z,15.52
2022-08-17T00:59:56.007Z,17.58
2022-08-17T01:02:30.228Z,15.45
2022-08-17T01:05:01.462Z,17.88
2022-08-17T01:07:28.411Z,17.48
2022-08-17T01:09:55.318Z,16.30
2022-08-17T01:12:22.458Z,14.32
2022-08-17T01:14:49.408Z,13.85
2022-08-17T01:17:16.321Z,15.35
2022-08-17T01:19:43.377Z,14.88
2022-08-17T01:22:14.232Z,15.48
2022-08-17T01:24:43.367Z,17.02
2022-08-17T01:27:10.804Z,15.40
2022-08-17T01:29:38.620Z,14.63
2022-08-17T01:32:06.089Z,15.68
2022-08-17T01:34:37.367Z,15.15
2022-08-17T01:37:11.102Z,14.55
2022-08-17T01:39:40.107Z,14.43
2022-08-17T01:42:26.800Z,14.93
2022-08-17T01:44:56.992Z,14.60
2022-08-17T01:47:24.054Z,15.75
2022-08-17T01:49:50.959Z,15.85
2022-08-17T01:52:17.881Z,13.07
2022-08-17T01:54:46.423Z,12.00
2022-08-17T01:57:13.580Z,14.95
2022-08-17T01:59:40.471Z,13.88
2022-08-17T02:02:07.513Z,14.73
2022-08-17T02:04:34.546Z,16.05
2022-08-17T02:07:01.547Z,14.02
2022-08-17T02:09:29.970Z,15.40
2022-08-17T02:11:58.924Z,15.15
2022-08-17T02:14:25.987Z,13.18
2022-08-17T02:16:53.098Z,14.40
2022-08-17T02:19:20.383Z,14.73
2022-08-17T02:21:50.406Z,15.70
2022-08-17T02:24:59.705Z,12.57
2022-08-17T02:27:23.696Z,14.45
2022-08-17T02:29:50.548Z,15.18
2022-08-17T02:32:28.381Z,14.27
2022-08-17T02:34:58.743Z,13.82
2022-08-17T02:37:26.857Z,15.45
2022-08-17T02:39:54.135Z,15.10
2022-08-17T02:42:26.287Z,12.20
2022-08-17T02:44:53.242Z,14.73
2022-08-17T02:47:20.107Z,13.38
2022-08-17T02:49:54.087Z,14.07
2022-08-17T02:52:42.945Z,13.43
2022-08-17T02:55:15.296Z,13.27
2022-08-17T02:57:42.502Z,16.20
2022-08-17T03:00:12.435Z,15.40
2022-08-17T03:02:40.469Z,13.85
2022-08-17T03:05:08.711Z,12.85
2022-08-17T03:07:35.857Z,12.43
2022-08-17T03:10:03.485Z,12.25
2022-08-17T03:12:36.158Z,11.15
2022-08-17T03:15:04.993Z,12.32
2022-08-17T03:17:31.845Z,13.98
2022-08-17T03:19:59.017Z,12.98
2022-08-17T03:22:37.392Z,17.65
2022-08-17T03:25:10.678Z,16.27
2022-08-17T03:27:38.192Z,11.98
2022-08-17T03:30:10.622Z,13.68
2022-08-17T03:32:43.151Z,13.13
2022-08-17T03:35:11.037Z,14.10
2022-08-17T03:37:39.781Z,14.43
2022-08-17T03:40:08.117Z,12.15
2022-08-17T03:42:38.170Z,13.30
2022-08-17T03:45:06.868Z,13.45
2022-08-17T03:47:52.073Z,12.32
2022-08-17T03:50:19.095Z,12.23
2022-08-17T03:53:04.437Z,12.57
2022-08-17T03:55:49.830Z,13.60
2022-08-17T03:58:16.713Z,12.93
2022-08-17T04:00:46.249Z,15.75
2022-08-17T04:03:13.929Z,13.05
2022-08-17T04:05:40.773Z,16.13
2022-08-17T04:08:07.916Z,11.90
2022-08-17T04:10:41.316Z,12.80
2022-08-17T04:13:12.289Z,11.73
2022-08-17T04:15:39.236Z,12.75
2022-08-17T04:18:07.505Z,14.32
2022-08-17T04:20:34.594Z,14.13
2022-08-17T04:23:02.951Z,12.63
2022-08-17T04:25:32.577Z,11.68
2022-08-17T04:27:59.854Z,13.18
2022-08-17T04:30:27.518Z,13.80
2022-08-17T04:33:06.030Z,11.57
2022-08-17T04:35:41.187Z,12.70
2022-08-17T04:38:10.345Z,11.63
2022-08-17T04:40:55.741Z,13.70
2022-08-17T04:43:24.224Z,12.63
2022-08-17T04:45:57.024Z,12.65
2022-08-17T04:48:38.107Z,14.35
2022-08-17T04:51:10.642Z,14.93
2022-08-17T04:53:39.157Z,13.55
2022-08-17T04:56:06.381Z,19.70
2022-08-17T04:58:33.374Z,13.15
2022-08-17T05:01:00.599Z,13.90
2022-08-17T05:03:27.915Z,15.25
2022-08-17T05:05:54.858Z,12.68
2022-08-17T05:08:21.862Z,13.90
2022-08-17T05:10:49.018Z,16.30
2022-08-17T05:13:23.876Z,12.77
2022-08-17T05:15:53.893Z,16.60
2022-08-17T05:18:21.178Z,16.38
2022-08-17T05:20:51.471Z,17.65
2022-08-17T05:23:20.211Z,13.43
2022-08-17T05:25:48.970Z,15.13
2022-08-17T05:28:18.576Z,13.35
2022-08-17T05:30:49.247Z,14.50
2022-08-17T05:33:21.102Z,12.38
2022-08-17T05:35:49.158Z,14.25
2022-08-17T05:38:17.496Z,13.10
2022-08-17T05:40:44.846Z,14.57
2022-08-17T05:43:21.000Z,16.90
2022-08-17T05:46:00.093Z,15.00
2022-08-17T05:48:35.515Z,15.73
2022-08-17T05:51:34.890Z,18.95
2022-08-17T05:54:16.997Z,18.08
2022-08-17T05:56:43.962Z,17.13
2022-08-17T05:59:28.742Z,17.55
2022-08-17T06:02:02.846Z,16.60
2022-08-17T06:04:34.353Z,16.73
2022-08-17T06:07:06.979Z,18.70
2022-08-17T06:09:59.419Z,18.30
2022-08-17T06:12:37.265Z,17.17
2022-08-17T06:15:55.311Z,17.50
2022-08-17T06:18:23.481Z,19.25
2022-08-17T06:21:04.359Z,20.50
2022-08-17T06:23:48.809Z,19.92
2022-08-17T06:26:22.412Z,20.35
2022-08-17T06:28:58.659Z,21.63
2022-08-17T06:31:29.339Z,23.13
2022-08-17T06:33:57.061Z,27.45
2022-08-17T06:36:42.395Z,27.25
2022-08-17T06:39:27.854Z,28.52
2022-08-17T06:43:05.026Z,30.15
2022-08-17T06:45:07.329Z,32.03
2022-08-17T06:47:52.401Z,34.03
2022-08-17T06:50:27.330Z,32.95
2022-08-17T06:53:00.346Z,44.55
2022-08-17T06:55:37.926Z,45.40
2022-08-17T06:58:09.993Z,47.50
2022-08-17T07:00:44.054Z,46.97
2022-08-17T07:03:21.123Z,46.28
2022-08-17T07:05:53.781Z,47.08
2022-08-17T07:11:13.062Z,47.08
2022-08-17T07:14:11.845Z,46.97
2022-08-17T07:16:46.731Z,41.97
2022-08-17T07:19:18.713Z,43.55
2022-08-17T07:21:46.024Z,47.03
2022-08-17T07:24:26.345Z,39.88
2022-08-17T07:27:21.334Z,45.90
2022-08-17T07:30:00.824Z,39.28
2022-08-17T07:32:34.208Z,43.45
2022-08-17T07:37:40.366Z,40.13
2022-08-17T07:40:19.905Z,38.55
2022-08-17T07:43:05.940Z,37.33
2022-08-17T07:45:51.580Z,41.58
2022-08-17T07:48:23.802Z,39.42
2022-08-17T07:50:53.134Z,41.78
2022-08-17T07:53:23.547Z,39.05
2022-08-17T07:55:51.215Z,42.63
2022-08-17T07:58:23.505Z,39.95
2022-08-17T08:01:10.882Z,33.38
2022-08-17T08:03:43.285Z,38.47
2022-08-17T08:06:24.551Z,35.65
2022-08-17T08:08:54.792Z,38.08
2022-08-17T08:11:35.489Z,34.63
2022-08-17T08:14:21.711Z,35.03
2022-08-17T08:16:59.192Z,39.10
2022-08-17T08:19:26.823Z,38.60
2022-08-17T08:22:02.708Z,44.17
2022-08-17T08:24:36.436Z,44.85
2022-08-17T08:27:04.240Z,41.80
2022-08-17T08:29:52.719Z,43.10
2022-08-17T08:32:54.161Z,44.35
2022-08-17T08:35:29.560Z,42.63
2022-08-17T08:38:23.453Z,47.25
2022-08-17T08:40:56.161Z,39.55
2022-08-17T08:46:31.357Z,47.10
2022-08-17T08:49:19.267Z,32.63
2022-08-17T08:51:53.288Z,33.03
2022-08-17T08:54:35.256Z,37.25
2022-08-17T08:57:27.992Z,31.45
2022-08-17T09:00:14.677Z,32.78
2022-08-17T09:03:10.710Z,33.47
2022-08-17T09:06:32.044Z,32.35
2022-08-17T09:09:18.455Z,32.58
2022-08-17T09:12:01.532Z,27.48
2022-08-17T09:14:36.550Z,29.70
2022-08-17T09:17:22.868Z,26.10
2022-08-17T09:20:00.163Z,27.55
2022-08-17T09:22:38.571Z,28.50
2022-08-17T09:25:17.931Z,28.63
2022-08-17T09:28:00.711Z,26.83
2022-08-17T09:30:29.926Z,35.80
2022-08-17T09:32:59.230Z,28.10
2022-08-17T09:35:36.925Z,26.50
2022-08-17T09:38:19.544Z,27.25
2022-08-17T09:41:10.593Z,30.90
2022-08-17T09:43:52.667Z,27.75
2022-08-17T09:46:25.912Z,26.60
2022-08-17T09:51:52.989Z,24.73
2022-08-17T09:54:42.770Z,28.27
2022-08-17T09:57:31.599Z,24.77
2022-08-17T10:00:16.793Z,21.42
2022-08-17T10:03:18.924Z,24.90
2022-08-17T10:05:56.829Z,25.98
2022-08-17T10:08:38.184Z,26.17
2022-08-17T10:11:27.972Z,21.20
2022-08-17T10:14:35.988Z,20.05
2022-08-17T10:17:09.243Z,22.35
2022-08-17T10:19:45.988Z,24.55
2022-08-17T10:22:55.642Z,23.20
2022-08-17T10:25:56.763Z,23.35
2022-08-17T10:28:30.493Z,24.85
2022-08-17T10:31:23.243Z,21.67
2022-08-17T10:34:11.548Z,21.60
2022-08-17T10:36:48.429Z,20.48
2022-08-17T10:39:33.401Z,16.52
2022-08-17T10:42:13.825Z,17.30
2022-08-17T10:45:05.501Z,15.32
2022-08-17T10:48:07.887Z,17.38
2022-08-17T10:50:59.931Z,18.73
2022-08-17T10:53:32.686Z,19.42
2022-08-17T10:56:15.474Z,16.27
2022-08-17T10:58:55.273Z,17.55
2022-08-17T11:01:58.300Z,16.83
2022-08-17T11:04:41.044Z,16.00
2022-08-17T11:07:20.765Z,14.20
2022-08-17T11:10:03.049Z,16.45
2022-08-17T11:12:30.036Z,17.58
2022-08-17T11:15:03.250Z,20.02
2022-08-17T11:17:53.524Z,17.48
2022-08-17T11:20:52.646Z,18.65
2022-08-17T11:23:23.887Z,17.55
2022-08-17T11:25:53.440Z,15.52
2022-08-17T11:28:23.067Z,15.93
2022-08-17T11:30:55.235Z,14.25
2022-08-17T11:33:36.940Z,14.83
2022-08-17T11:36:26.991Z,14.15
2022-08-17T11:39:15.884Z,15.05
2022-08-17T11:42:01.201Z,12.55
2022-08-17T11:44:56.154Z,13.77
2022-08-17T11:48:28.329Z,12.90
2022-08-17T11:51:25.730Z,12.32
2022-08-17T11:54:21.508Z,12.27
2022-08-17T11:56:46.441Z,12.07
2022-08-17T11:59:37.101Z,11.05
2022-08-17T12:02:31.591Z,10.93
2022-08-17T12:05:14.367Z,12.35
2022-08-17T12:07:43.264Z,11.52
2022-08-17T12:10:12.171Z,12.07
2022-08-17T12:12:40.435Z,10.00
2022-08-17T12:15:11.002Z,10.13
2022-08-17T12:17:40.691Z,11.27
2022-08-17T12:20:33.362Z,10.45
2022-08-17T12:23:17.890Z,10.00
2022-08-17T12:25:56.725Z,11.55
2022-08-17T12:28:25.196Z,10.38
2022-08-17T12:30:52.329Z,10.00
2022-08-17T12:33:25.665Z,12.80
2022-08-17T12:36:00.271Z,10.88
2022-08-17T12:38:33.046Z,11.30
2022-08-17T12:41:20.523Z,11.93
2022-08-17T12:44:02.991Z,11.65
2022-08-17T12:46:33.559Z,13.90
2022-08-17T12:49:26.530Z,12.02
2022-08-17T12:52:04.543Z,11.30
2022-08-17T12:54:37.811Z,11.35
2022-08-17T12:57:13.403Z,10.07
2022-08-17T12:59:45.602Z,12.23
2022-08-17T13:02:20.794Z,11.23
2022-08-17T13:04:47.723Z,12.45
2022-08-17T13:07:28.024Z,11.75
2022-08-17T13:09:54.954Z,13.15
2022-08-17T13:12:33.162Z,12.25
2022-08-17T13:15:00.328Z,13.23
2022-08-17T13:17:29.349Z,11.13
2022-08-17T13:19:56.222Z,10.70
2022-08-17T13:22:24.217Z,13.68
2022-08-17T13:24:56.338Z,12.40
2022-08-17T13:27:25.121Z,10.07
2022-08-17T13:29:56.359Z,9.50
2022-08-17T13:32:39.893Z,10.10
2022-08-17T13:35:41.379Z,10.90
2022-08-17T13:38:37.543Z,9.30
2022-08-17T13:41:07.359Z,10.90
2022-08-17T13:43:52.543Z,10.20
2022-08-17T13:46:26.556Z,15.13
2022-08-17T13:49:09.546Z,9.07
2022-08-17T13:51:43.138Z,10.32
2022-08-17T13:54:39.689Z,12.00
2022-08-17T13:57:12.769Z,13.65
2022-08-17T14:02:22.600Z,17.48
2022-08-17T14:04:54.169Z,16.02
2022-08-17T14:07:31.705Z,13.02
2022-08-17T14:10:06.597Z,14.48
2022-08-17T14:12:34.202Z,14.93
2022-08-17T14:15:01.204Z,14.07
2022-08-17T14:17:34.965Z,10.90
2022-08-17T14:20:07.065Z,12.68
2022-08-17T14:22:35.629Z,10.75
2022-08-17T14:25:02.700Z,8.80
2022-08-17T14:27:32.011Z,8.95
2022-08-17T14:29:59.167Z,7.55
2022-08-17T14:32:33.988Z,6.78
2022-08-17T14:35:01.305Z,6.72
2022-08-17T14:37:28.603Z,6.35
2022-08-17T14:39:56.613Z,5.80
2022-08-17T14:42:25.887Z,5.20
2022-08-17T14:44:55.793Z,7.72
2022-08-17T14:47:22.690Z,8.05
2022-08-17T14:49:49.671Z,6.75
2022-08-17T14:52:21.848Z,7.57
2022-08-17T14:54:51.303Z,6.55
2022-08-17T14:57:25.899Z,6.63
2022-08-17T15:00:00.944Z,7.47
2022-08-17T15:02:30.092Z,9.20
2022-08-17T15:05:05.323Z,6.90
2022-08-17T15:07:32.499Z,7.30
2022-08-17T15:10:01.465Z,6.70
2022-08-17T15:12:32.756Z,5.45
2022-08-17T15:15:01.149Z,6.50
2022-08-17T15:17:44.862Z,5.15
2022-08-17T15:20:15.269Z,4.95
2022-08-17T15:22:42.591Z,6.32
2022-08-17T15:25:10.539Z,8.75
2022-08-17T15:27:37.563Z,5.63
2022-08-17T15:30:08.091Z,6.45
2022-08-17T15:32:36.547Z,5.95
2022-08-17T15:35:04.294Z,8.38
2022-08-17T15:37:32.157Z,7.18
2022-08-17T15:40:01.297Z,10.65
2022-08-17T15:42:29.340Z,10.73
2022-08-17T15:44:56.424Z,8.05
2022-08-17T15:47:23.401Z,7.50
2022-08-17T15:49:50.903Z,9.45
2022-08-17T15:52:19.081Z,9.68
2022-08-17T15:54:53.433Z,9.23
2022-08-17T15:57:20.490Z,7.38
2022-08-17T15:59:47.738Z,6.95
2022-08-17T16:03:47.144Z,7.40
2022-08-17T16:05:14.254Z,6.47
2022-08-17T16:07:44.603Z,6.20
2022-08-17T16:10:16.649Z,4.43
2022-08-17T16:12:46.660Z,4.20
2022-08-17T16:15:13.845Z,2.80
2022-08-17T16:17:43.947Z,3.10
2022-08-17T16:20:20.472Z,4.65
2022-08-17T16:22:49.032Z,2.63
2022-08-17T16:25:21.142Z,3.60
2022-08-17T16:27:53.408Z,3.28
2022-08-17T16:30:22.614Z,2.95
2022-08-17T16:32:51.369Z,2.60
2022-08-17T16:35:20.412Z,3.05
2022-08-17T16:37:47.614Z,2.13
2022-08-17T16:40:17.698Z,2.55
2022-08-17T16:42:45.381Z,2.63
2022-08-17T16:45:16.711Z,3.65
2022-08-17T16:47:43.991Z,3.03
2022-08-17T16:50:15.300Z,2.60
2022-08-17T16:52:42.277Z,3.17
2022-08-17T16:55:09.851Z,3.55
2022-08-17T16:57:50.040Z,4.97
2022-08-17T17:00:17.974Z,3.63
2022-08-17T17:02:47.214Z,3.67
2022-08-17T17:05:20.035Z,3.30
2022-08-17T17:07:58.884Z,4.10
2022-08-17T17:10:39.788Z,3.38
2022-08-17T17:13:25.686Z,3.33
2022-08-17T17:16:24.050Z,3.70
2022-08-17T17:19:08.262Z,5.43
2022-08-17T17:22:03.805Z,4.55
2022-08-17T17:24:49.955Z,5.85
2022-08-17T17:27:42.577Z,5.55
2022-08-17T17:30:27.713Z,5.90
2022-08-17T17:33:00.927Z,11.43
2022-08-17T17:35:53.434Z,5.85
2022-08-17T17:38:34.686Z,6.55
2022-08-17T17:41:04.499Z,4.63
2022-08-17T17:43:40.147Z,6.53
2022-08-17T17:46:27.039Z,7.07
2022-08-17T17:48:55.313Z,5.28
2022-08-17T17:52:03.568Z,14.38
2022-08-17T17:54:52.321Z,8.13
2022-08-17T17:57:44.989Z,8.98
2022-08-17T18:00:23.574Z,6.93
2022-08-17T18:03:08.681Z,5.85
2022-08-17T18:05:57.366Z,5.88
2022-08-17T18:08:52.823Z,7.55
2022-08-17T18:11:39.523Z,5.78
2022-08-17T18:14:42.231Z,8.02
2022-08-17T18:17:09.225Z,5.82
2022-08-17T18:19:39.851Z,6.78
2022-08-17T18:22:14.095Z,8.00
2022-08-17T18:24:43.367Z,7.18
2022-08-17T18:27:39.194Z,5.88
2022-08-17T18:30:15.184Z,6.68
2022-08-17T18:32:43.667Z,6.55
2022-08-17T18:35:10.560Z,8.70
2022-08-17T18:37:48.966Z,8.82
2022-08-17T18:40:21.623Z,9.30
2022-08-17T18:42:57.500Z,8.02
2022-08-17T18:45:42.705Z,7.13
2022-08-17T18:48:33.082Z,8.43
2022-08-17T18:51:26.283Z,9.32
2022-08-17T18:54:14.790Z,8.82
2022-08-17T18:56:52.507Z,8.15
2022-08-17T18:59:39.759Z,8.05
2022-08-17T19:02:26.131Z,8.93
2022-08-17T19:05:02.646Z,7.63
2022-08-17T19:07:32.128Z,9.65
2022-08-17T19:10:14.804Z,9.75
2022-08-17T19:13:00.863Z,7.83
2022-08-17T19:15:33.271Z,9.07
2022-08-17T19:18:15.450Z,7.10
2022-08-17T19:20:53.307Z,11.63
2022-08-17T19:23:37.222Z,6.60
2022-08-17T19:26:51.110Z,9.85
2022-08-17T19:28:57.836Z,7.63
2022-08-17T19:31:26.802Z,7.97
2022-08-17T19:33:54.649Z,7.25
2022-08-17T19:36:26.216Z,7.90
2022-08-17T19:39:26.331Z,8.60
2022-08-17T19:42:06.094Z,8.80
2022-08-17T19:44:59.102Z,9.52
2022-08-17T19:47:55.582Z,9.43
2022-08-17T19:50:47.373Z,11.35
2022-08-17T19:53:36.678Z,8.75
2022-08-17T19:56:20.691Z,7.30
2022-08-17T19:58:57.120Z,8.05
2022-08-17T20:01:38.877Z,7.50
2022-08-17T20:04:31.815Z,7.55
2022-08-17T20:07:25.972Z,6.45
2022-08-17T20:10:34.260Z,5.90
2022-08-17T20:13:04.295Z,5.78
2022-08-17T20:15:33.562Z,9.38
2022-08-17T20:18:01.463Z,7.93
2022-08-17T20:20:35.877Z,9.02
2022-08-17T20:23:26.070Z,8.13
2022-08-17T20:26:19.068Z,7.90
2022-08-17T20:29:14.366Z,7.20
2022-08-17T20:31:42.582Z,7.13
2022-08-17T20:34:38.003Z,7.90
2022-08-17T20:37:11.000Z,8.80
2022-08-17T20:39:43.215Z,8.65
2022-08-17T20:42:22.411Z,8.43
2022-08-17T20:44:51.541Z,7.32
2022-08-17T20:47:26.908Z,8.82
2022-08-17T20:49:57.367Z,10.40
2022-08-17T20:52:45.563Z,9.68
2022-08-17T20:55:34.295Z,7.65
2022-08-17T20:58:17.070Z,12.13
2022-08-17T21:00:44.856Z,10.23
2022-08-17T21:03:22.506Z,9.27
2022-08-17T21:06:00.696Z,11.50
2022-08-17T21:08:45.783Z,8.25
2022-08-17T21:12:02.640Z,9.70
2022-08-17T21:14:31.076Z,10.18
2022-08-17T21:17:24.164Z,10.30
2022-08-17T21:20:09.757Z,10.30
2022-08-17T21:23:02.218Z,8.95
2022-08-17T21:26:00.934Z,10.20
2022-08-17T21:29:29.502Z,9.60
2022-08-17T21:32:10.832Z,9.10
2022-08-17T21:34:43.166Z,10.45
2022-08-17T21:37:22.294Z,7.05
2022-08-17T21:39:55.229Z,8.07
2022-08-17T21:42:47.861Z,7.88
2022-08-17T21:45:29.964Z,8.45
2022-08-17T21:48:24.577Z,9.70
2022-08-17T21:51:08.927Z,10.80
2022-08-17T21:53:43.533Z,8.38
2022-08-17T21:56:11.589Z,7.28
2022-08-17T21:58:45.441Z,8.93
2022-08-17T22:01:29.902Z,10.32
2022-08-17T22:04:16.759Z,11.13
2022-08-17T22:06:52.578Z,8.27
2022-08-17T22:09:28.289Z,8.18
2022-08-17T22:11:59.985Z,10.73
2022-08-17T22:14:51.506Z,9.63
2022-08-17T22:17:45.303Z,9.23
2022-08-17T22:20:17.633Z,14.10
2022-08-17T22:23:12.268Z,10.30
2022-08-17T22:26:00.084Z,10.18
2022-08-17T22:28:51.662Z,9.25
2022-08-17T22:31:29.444Z,8.50
2022-08-17T22:34:02.156Z,9.77
2022-08-17T22:36:29.839Z,9.80
2022-08-17T22:39:00.243Z,10.15
2022-08-17T22:41:48.457Z,9.35
2022-08-17T22:44:29.862Z,13.10
2022-08-17T22:47:16.318Z,8.40
2022-08-17T22:49:53.161Z,9.55
2022-08-17T22:53:10.741Z,8.48
2022-08-17T22:55:56.189Z,10.80
2022-08-17T22:58:42.428Z,10.38
2022-08-17T23:01:25.819Z,10.77
2022-08-17T23:04:01.349Z,9.98
2022-08-17T23:06:28.704Z,8.68
2022-08-17T23:08:56.486Z,8.38
2022-08-17T23:11:36.979Z,7.70
2022-08-17T23:14:15.672Z,8.13
2022-08-17T23:16:42.704Z,10.52
2022-08-17T23:19:13.828Z,7.07
2022-08-17T23:21:40.858Z,7.07
2022-08-17T23:24:08.951Z,7.80
2022-08-17T23:26:38.099Z,8.77
2022-08-17T23:29:06.469Z,7.63
2022-08-17T23:31:34.758Z,8.07
2022-08-17T23:34:02.278Z,7.88
2022-08-17T23:36:29.455Z,4.90
2022-08-17T23:38:56.766Z,10.77
2022-08-17T23:41:23.737Z,7.53
2022-08-17T23:43:51.717Z,10.70
2022-08-17T23:46:20.014Z,8.65
2022-08-17T23:48:47.627Z,10.25
2022-08-17T23:51:15.342Z,7.05
2022-08-17T23:53:46.383Z,7.45
2022-08-17T23:56:13.794Z,7.47
2022-08-17T23:58:42.226Z,8.43
